sensor_id;sensor_type;location;lat;lon;timestamp;pressure;altitude;pressure_sealevel;temperature;humidity
37972;BME280;23794;48.234;8.344;2023-06-24T00:00:08;95181.06;;;12.90;73.88
37972;BME280;23794;48.234;8.344;2023-06-24T00:02:38;95183.81;;;12.90;73.57
37972;BME280;23794;48.234;8.344;2023-06-24T00:05:08;95175.19;;;12.84;74.04
37972;BME280;23794;48.234;8.344;2023-06-24T00:07:35;95186.97;;;12.81;74.21
37972;BME280;23794;48.234;8.344;2023-06-24T00:10:14;95188.94;;;12.77;74.15
37972;BME280;23794;48.234;8.344;2023-06-24T00:12:43;95178.31;;;12.75;73.78
37972;BME280;23794;48.234;8.344;2023-06-24T00:15:11;95180.69;;;12.70;74.08
37972;BME280;23794;48.234;8.344;2023-06-24T00:17:38;95175.56;;;12.65;74.59
37972;BME280;23794;48.234;8.344;2023-06-24T00:20:06;95179.09;;;12.61;73.94
37972;BME280;23794;48.234;8.344;2023-06-24T00:22:38;95175.97;;;12.67;73.82
37972;BME280;23794;48.234;8.344;2023-06-24T00:25:11;95179.88;;;12.58;73.75
37972;BME280;23794;48.234;8.344;2023-06-24T00:27:37;95185.75;;;12.53;73.93
37972;BME280;23794;48.234;8.344;2023-06-24T00:30:05;95181.03;;;12.54;73.87
37972;BME280;23794;48.234;8.344;2023-06-24T00:32:31;95179.88;;;12.55;73.47
37972;BME280;23794;48.234;8.344;2023-06-24T00:34:58;95190.47;;;12.56;74.14
37972;BME280;23794;48.234;8.344;2023-06-24T00:37:26;95186.94;;;12.52;74.53
37972;BME280;23794;48.234;8.344;2023-06-24T00:39:53;95190.44;;;12.45;75.64
37972;BME280;23794;48.234;8.344;2023-06-24T00:42:20;95197.50;;;12.43;75.36
37972;BME280;23794;48.234;8.344;2023-06-24T00:44:48;95195.91;;;12.38;75.16
37972;BME280;23794;48.234;8.344;2023-06-24T00:47:15;95187.63;;;12.35;74.39
37972;BME280;23794;48.234;8.344;2023-06-24T00:49:43;95184.41;;;12.11;75.12
37972;BME280;23794;48.234;8.344;2023-06-24T00:52:12;95189.16;;;12.14;74.56
37972;BME280;23794;48.234;8.344;2023-06-24T00:54:43;95185.63;;;12.10;75.94
37972;BME280;23794;48.234;8.344;2023-06-24T00:57:11;95196.97;;;12.12;76.03
37972;BME280;23794;48.234;8.344;2023-06-24T00:59:40;95192.69;;;12.18;75.27
37972;BME280;23794;48.234;8.344;2023-06-24T01:02:09;95192.69;;;12.14;75.76
37972;BME280;23794;48.234;8.344;2023-06-24T01:04:37;95189.16;;;12.18;74.46
37972;BME280;23794;48.234;8.344;2023-06-24T01:07:05;95195.06;;;12.20;74.53
37972;BME280;23794;48.234;8.344;2023-06-24T01:09:35;95191.50;;;12.15;75.28
37972;BME280;23794;48.234;8.344;2023-06-24T01:12:02;95186.00;;;12.15;75.40
37972;BME280;23794;48.234;8.344;2023-06-24T01:14:30;95189.56;;;12.20;74.93
37972;BME280;23794;48.234;8.344;2023-06-24T01:17:03;95182.94;;;12.28;73.65
37972;BME280;23794;48.234;8.344;2023-06-24T01:19:44;95175.44;;;12.21;74.11
37972;BME280;23794;48.234;8.344;2023-06-24T01:28:24;95174.25;;;12.11;75.32
37972;BME280;23794;48.234;8.344;2023-06-24T01:34:00;95172.25;;;12.05;75.19
37972;BME280;23794;48.234;8.344;2023-06-24T01:36:29;95167.56;;;12.05;74.21
37972;BME280;23794;48.234;8.344;2023-06-24T01:39:02;95164.00;;;11.97;74.86
37972;BME280;23794;48.234;8.344;2023-06-24T01:41:39;95162.78;;;11.91;75.67
37972;BME280;23794;48.234;8.344;2023-06-24T01:44:09;95168.28;;;11.88;75.17
37972;BME280;23794;48.234;8.344;2023-06-24T01:46:42;95169.41;;;11.83;75.75
37972;BME280;23794;48.234;8.344;2023-06-24T01:49:13;95175.31;;;11.85;75.13
37972;BME280;23794;48.234;8.344;2023-06-24T01:51:42;95169.00;;;11.77;75.72
37972;BME280;23794;48.234;8.344;2023-06-24T01:54:16;95175.31;;;11.81;75.41
37972;BME280;23794;48.234;8.344;2023-06-24T01:56:46;95171.78;;;11.88;74.53
37972;BME280;23794;48.234;8.344;2023-06-24T01:59:16;95176.84;;;11.75;76.06
37972;BME280;23794;48.234;8.344;2023-06-24T02:01:44;95182.34;;;11.75;75.78
37972;BME280;23794;48.234;8.344;2023-06-24T02:04:12;95177.19;;;11.70;75.63
37972;BME280;23794;48.234;8.344;2023-06-24T02:06:40;95178.38;;;11.73;75.87
37972;BME280;23794;48.234;8.344;2023-06-24T02:09:09;95176.03;;;11.71;75.54
37972;BME280;23794;48.234;8.344;2023-06-24T02:11:38;95178.38;;;11.69;75.89
37972;BME280;23794;48.234;8.344;2023-06-24T02:14:07;95175.59;;;11.62;76.29
37972;BME280;23794;48.234;8.344;2023-06-24T02:16:36;95182.28;;;11.61;76.77
37972;BME280;23794;48.234;8.344;2023-06-24T02:19:04;95183.47;;;11.63;76.45
37972;BME280;23794;48.234;8.344;2023-06-24T02:21:34;95177.19;;;11.70;75.59
37972;BME280;23794;48.234;8.344;2023-06-24T02:24:02;95181.06;;;11.62;76.08
37972;BME280;23794;48.234;8.344;2023-06-24T02:26:31;95169.28;;;11.54;76.73
37972;BME280;23794;48.234;8.344;2023-06-24T02:28:58;95169.69;;;11.52;76.39
37972;BME280;23794;48.234;8.344;2023-06-24T02:31:25;95175.16;;;11.49;76.92
37972;BME280;23794;48.234;8.344;2023-06-24T02:33:52;95183.41;;;11.56;75.87
37972;BME280;23794;48.234;8.344;2023-06-24T02:36:18;95175.94;;;11.53;76.53
37972;BME280;23794;48.234;8.344;2023-06-24T02:38:45;95180.63;;;11.49;76.35
37972;BME280;23794;48.234;8.344;2023-06-24T02:41:11;95173.56;;;11.48;76.14
37972;BME280;23794;48.234;8.344;2023-06-24T02:43:38;95167.66;;;11.46;76.46
37972;BME280;23794;48.234;8.344;2023-06-24T02:46:05;95175.91;;;11.49;76.43
37972;BME280;23794;48.234;8.344;2023-06-24T02:48:34;95179.41;;;11.46;76.64
37972;BME280;23794;48.234;8.344;2023-06-24T02:51:03;95175.13;;;11.45;76.73
37972;BME280;23794;48.234;8.344;2023-06-24T02:53:31;95178.22;;;11.44;76.87
37972;BME280;23794;48.234;8.344;2023-06-24T02:55:59;95172.75;;;11.47;76.36
37972;BME280;23794;48.234;8.344;2023-06-24T02:58:26;95177.09;;;11.52;75.92
37972;BME280;23794;48.234;8.344;2023-06-24T03:01:04;95174.31;;;11.41;76.18
37972;BME280;23794;48.234;8.344;2023-06-24T03:03:47;95174.28;;;11.38;76.51
37972;BME280;23794;48.234;8.344;2023-06-24T03:06:16;95175.06;;;11.34;77.45
37972;BME280;23794;48.234;8.344;2023-06-24T03:08:45;95172.72;;;11.40;77.12
37972;BME280;23794;48.234;8.344;2023-06-24T03:11:13;95173.88;;;11.39;77.02
37972;BME280;23794;48.234;8.344;2023-06-24T03:13:41;95177.03;;;11.38;76.63
37972;BME280;23794;48.234;8.344;2023-06-24T03:16:14;95182.13;;;11.39;76.49
37972;BME280;23794;48.234;8.344;2023-06-24T03:18:51;95173.88;;;11.39;76.49
37972;BME280;23794;48.234;8.344;2023-06-24T03:21:18;95179.75;;;11.38;76.63
37972;BME280;23794;48.234;8.344;2023-06-24T03:23:45;95174.66;;;11.36;77.12
37972;BME280;23794;48.234;8.344;2023-06-24T03:26:14;95180.53;;;11.34;77.17
37972;BME280;23794;48.234;8.344;2023-06-24T03:28:42;95183.63;;;11.29;77.40
37972;BME280;23794;48.234;8.344;2023-06-24T03:31:15;95186.34;;;11.26;77.64
37972;BME280;23794;48.234;8.344;2023-06-24T03:33:44;95189.53;;;11.31;77.30
37972;BME280;23794;48.234;8.344;2023-06-24T03:36:13;95191.53;;;11.38;76.79
37972;BME280;23794;48.234;8.344;2023-06-24T03:38:41;95189.56;;;11.39;76.73
37972;BME280;23794;48.234;8.344;2023-06-24T03:41:08;95202.84;;;11.33;76.89
37972;BME280;23794;48.234;8.344;2023-06-24T03:43:34;95204.00;;;11.28;77.36
37972;BME280;23794;48.234;8.344;2023-06-24T03:46:01;95198.50;;;11.28;77.69
37972;BME280;23794;48.234;8.344;2023-06-24T03:48:28;95204.41;;;11.30;77.76
37972;BME280;23794;48.234;8.344;2023-06-24T03:50:55;95195.44;;;11.33;77.44
37972;BME280;23794;48.234;8.344;2023-06-24T03:53:22;95206.00;;;11.35;77.28
37972;BME280;23794;48.234;8.344;2023-06-24T03:55:49;95199.34;;;11.36;77.28
37972;BME280;23794;48.234;8.344;2023-06-24T03:58:16;95198.59;;;11.43;76.74
37972;BME280;23794;48.234;8.344;2023-06-24T04:00:43;95191.53;;;11.38;77.18
37972;BME280;23794;48.234;8.344;2023-06-24T04:03:10;95193.06;;;11.35;77.30
37972;BME280;23794;48.234;8.344;2023-06-24T04:05:38;95199.38;;;11.40;77.42
37972;BME280;23794;48.234;8.344;2023-06-24T04:08:05;95201.31;;;11.39;76.98
37972;BME280;23794;48.234;8.344;2023-06-24T04:10:33;95200.97;;;11.44;76.90
37972;BME280;23794;48.234;8.344;2023-06-24T04:12:59;95199.38;;;11.40;77.10
37972;BME280;23794;48.234;8.344;2023-06-24T04:15:26;95212.31;;;11.43;77.03
37972;BME280;23794;48.234;8.344;2023-06-24T04:17:53;95201.75;;;11.45;77.40
37972;BME280;23794;48.234;8.344;2023-06-24T04:20:20;95210.78;;;11.45;76.90
37972;BME280;23794;48.234;8.344;2023-06-24T04:22:47;95206.94;;;11.54;76.84
37972;BME280;23794;48.234;8.344;2023-06-24T04:25:15;95208.44;;;11.51;77.39
37972;BME280;23794;48.234;8.344;2023-06-24T04:27:42;95208.13;;;11.60;76.70
37972;BME280;23794;48.234;8.344;2023-06-24T04:30:09;95204.25;;;11.64;76.39
37972;BME280;23794;48.234;8.344;2023-06-24T04:32:37;95211.66;;;11.60;76.79
37972;BME280;23794;48.234;8.344;2023-06-24T04:35:04;95208.09;;;11.56;77.03
37972;BME280;23794;48.234;8.344;2023-06-24T04:37:32;95224.63;;;11.63;77.18
37972;BME280;23794;48.234;8.344;2023-06-24T04:39:59;95213.69;;;11.74;76.40
37972;BME280;23794;48.234;8.344;2023-06-24T04:42:25;95216.81;;;11.73;76.75
37972;BME280;23794;48.234;8.344;2023-06-24T04:44:52;95216.44;;;11.74;77.04
37972;BME280;23794;48.234;8.344;2023-06-24T04:47:18;95220.75;;;11.75;76.82
37972;BME280;23794;48.234;8.344;2023-06-24T04:49:45;95225.47;;;11.82;76.79
37972;BME280;23794;48.234;8.344;2023-06-24T04:52:12;95227.84;;;11.80;76.96
37972;BME280;23794;48.234;8.344;2023-06-24T04:54:39;95226.66;;;11.84;76.87
37972;BME280;23794;48.234;8.344;2023-06-24T04:57:08;95217.28;;;11.89;76.52
37972;BME280;23794;48.234;8.344;2023-06-24T04:59:34;95218.13;;;11.97;76.75
37972;BME280;23794;48.234;8.344;2023-06-24T05:02:02;95218.91;;;12.01;76.61
37972;BME280;23794;48.234;8.344;2023-06-24T05:04:29;95215.00;;;12.06;76.88
37972;BME280;23794;48.234;8.344;2023-06-24T05:06:55;95215.44;;;12.11;76.31
37972;BME280;23794;48.234;8.344;2023-06-24T05:09:22;95224.09;;;12.17;76.44
37972;BME280;23794;48.234;8.344;2023-06-24T05:11:49;95216.66;;;12.21;76.25
37972;BME280;23794;48.234;8.344;2023-06-24T05:14:15;95225.31;;;12.30;76.14
37972;BME280;23794;48.234;8.344;2023-06-24T05:16:42;95223.34;;;12.35;76.47
37972;BME280;23794;48.234;8.344;2023-06-24T05:19:08;95232.06;;;12.47;76.35
37972;BME280;23794;48.234;8.344;2023-06-24T05:21:35;95226.97;;;12.53;76.22
37972;BME280;23794;48.234;8.344;2023-06-24T05:24:02;95221.91;;;12.59;75.70
37972;BME280;23794;48.234;8.344;2023-06-24T05:26:28;95227.41;;;12.66;75.76
37972;BME280;23794;48.234;8.344;2023-06-24T05:28:55;95223.50;;;12.78;75.38
37972;BME280;23794;48.234;8.344;2023-06-24T05:31:21;95226.25;;;12.74;75.97
37972;BME280;23794;48.234;8.344;2023-06-24T05:33:48;95231.75;;;12.85;75.72
37972;BME280;23794;48.234;8.344;2023-06-24T05:36:15;95222.34;;;13.01;74.86
37972;BME280;23794;48.234;8.344;2023-06-24T05:38:41;95222.72;;;13.06;75.00
37972;BME280;23794;48.234;8.344;2023-06-24T05:41:08;95223.53;;;13.18;74.86
37972;BME280;23794;48.234;8.344;2023-06-24T05:43:34;95226.28;;;13.36;74.11
37972;BME280;23794;48.234;8.344;2023-06-24T05:46:01;95234.13;;;13.45;74.37
37972;BME280;23794;48.234;8.344;2023-06-24T05:48:28;95232.94;;;13.53;74.22
37972;BME280;23794;48.234;8.344;2023-06-24T05:50:54;95231.75;;;13.68;72.76
37972;BME280;23794;48.234;8.344;2023-06-24T05:53:21;95237.25;;;13.72;72.54
37972;BME280;23794;48.234;8.344;2023-06-24T05:55:47;95229.75;;;13.87;72.76
37972;BME280;23794;48.234;8.344;2023-06-24T05:58:14;95239.94;;;14.01;71.71
37972;BME280;23794;48.234;8.344;2023-06-24T06:00:41;95240.28;;;14.17;71.19
37972;BME280;23794;48.234;8.344;2023-06-24T06:03:08;95238.94;;;14.51;67.28
37972;BME280;23794;48.234;8.344;2023-06-24T06:05:36;95242.25;;;14.98;65.67
37972;BME280;23794;48.234;8.344;2023-06-24T06:08:03;95246.75;;;15.30;64.30
37972;BME280;23794;48.234;8.344;2023-06-24T06:10:29;95236.72;;;15.51;60.35
37972;BME280;23794;48.234;8.344;2023-06-24T06:12:56;95235.72;;;15.76;62.87
37972;BME280;23794;48.234;8.344;2023-06-24T06:15:23;95237.94;;;15.88;62.09
37972;BME280;23794;48.234;8.344;2023-06-24T06:17:52;95240.56;;;16.03;59.89
37972;BME280;23794;48.234;8.344;2023-06-24T06:20:19;95240.38;;;16.21;58.76
37972;BME280;23794;48.234;8.344;2023-06-24T06:22:45;95235.06;;;16.37;58.15
37972;BME280;23794;48.234;8.344;2023-06-24T06:25:12;95225.84;;;16.48;57.29
37972;BME280;23794;48.234;8.344;2023-06-24T06:27:38;95234.41;;;16.57;56.62
37972;BME280;23794;48.234;8.344;2023-06-24T06:30:06;95231.63;;;16.57;57.39
37972;BME280;23794;48.234;8.344;2023-06-24T06:32:33;95235.97;;;16.58;56.41
37972;BME280;23794;48.234;8.344;2023-06-24T06:35:00;95230.13;;;16.80;56.55
37972;BME280;23794;48.234;8.344;2023-06-24T06:37:26;95229.84;;;17.01;56.13
37972;BME280;23794;48.234;8.344;2023-06-24T06:39:53;95228.09;;;17.15;56.01
37972;BME280;23794;48.234;8.344;2023-06-24T06:42:20;95217.63;;;17.26;54.68
37972;BME280;23794;48.234;8.344;2023-06-24T06:44:46;95219.94;;;17.31;53.92
37972;BME280;23794;48.234;8.344;2023-06-24T06:47:13;95222.69;;;17.55;54.97
37972;BME280;23794;48.234;8.344;2023-06-24T06:49:39;95217.47;;;17.81;53.77
37972;BME280;23794;48.234;8.344;2023-06-24T06:52:06;95222.41;;;17.93;53.29
37972;BME280;23794;48.234;8.344;2023-06-24T06:54:33;95220.38;;;17.97;53.08
37972;BME280;23794;48.234;8.344;2023-06-24T06:57:04;95222.94;;;18.08;52.02
37972;BME280;23794;48.234;8.344;2023-06-24T06:59:31;95228.50;;;18.08;52.83
37972;BME280;23794;48.234;8.344;2023-06-24T07:01:58;95221.31;;;18.31;52.89
37972;BME280;23794;48.234;8.344;2023-06-24T07:04:25;95217.03;;;18.46;51.77
37972;BME280;23794;48.234;8.344;2023-06-24T07:06:51;95216.59;;;18.48;52.11
37972;BME280;23794;48.234;8.344;2023-06-24T07:09:19;95217.41;;;18.48;50.58
37972;BME280;23794;48.234;8.344;2023-06-24T07:11:46;95222.22;;;18.44;51.50
37972;BME280;23794;48.234;8.344;2023-06-24T07:14:12;95209.78;;;18.53;50.71
37972;BME280;23794;48.234;8.344;2023-06-24T07:16:39;95218.47;;;18.55;51.75
37972;BME280;23794;48.234;8.344;2023-06-24T07:19:06;95208.47;;;18.77;51.80
37972;BME280;23794;48.234;8.344;2023-06-24T07:21:32;95207.16;;;18.82;51.25
37972;BME280;23794;48.234;8.344;2023-06-24T07:23:59;95214.00;;;18.98;51.53
37972;BME280;23794;48.234;8.344;2023-06-24T07:26:25;95211.44;;;18.87;50.22
37972;BME280;23794;48.234;8.344;2023-06-24T07:28:56;95216.84;;;19.10;50.19
37972;BME280;23794;48.234;8.344;2023-06-24T07:31:35;95213.78;;;18.88;48.50
37972;BME280;23794;48.234;8.344;2023-06-24T07:34:02;95206.16;;;18.92;48.61
37972;BME280;23794;48.234;8.344;2023-06-24T07:36:29;95208.34;;;19.01;48.64
37972;BME280;23794;48.234;8.344;2023-06-24T07:38:55;95212.66;;;19.02;48.67
37972;BME280;23794;48.234;8.344;2023-06-24T07:41:22;95204.34;;;19.19;48.92
37972;BME280;23794;48.234;8.344;2023-06-24T07:43:49;95214.53;;;19.42;49.55
37972;BME280;23794;48.234;8.344;2023-06-24T07:46:15;95210.16;;;19.57;48.09
37972;BME280;23794;48.234;8.344;2023-06-24T07:48:42;95204.34;;;19.52;49.01
37972;BME280;23794;48.234;8.344;2023-06-24T07:51:09;95204.88;;;19.47;48.68
37972;BME280;23794;48.234;8.344;2023-06-24T07:53:35;95211.53;;;19.66;48.18
37972;BME280;23794;48.234;8.344;2023-06-24T07:56:02;95214.31;;;19.82;48.32
37972;BME280;23794;48.234;8.344;2023-06-24T07:58:29;95208.44;;;19.80;47.75
37972;BME280;23794;48.234;8.344;2023-06-24T08:00:55;95215.97;;;19.80;47.27
37972;BME280;23794;48.234;8.344;2023-06-24T08:03:22;95215.22;;;19.79;47.24
37972;BME280;23794;48.234;8.344;2023-06-24T08:05:49;95207.97;;;19.65;47.42
37972;BME280;23794;48.234;8.344;2023-06-24T08:08:16;95202.06;;;19.80;47.27
37972;BME280;23794;48.234;8.344;2023-06-24T08:10:46;95203.00;;;19.89;48.21
37972;BME280;23794;48.234;8.344;2023-06-24T08:13:13;95195.97;;;20.14;48.66
37972;BME280;23794;48.234;8.344;2023-06-24T08:15:39;95195.94;;;20.31;47.28
37972;BME280;23794;48.234;8.344;2023-06-24T08:18:08;95193.81;;;20.22;46.69
37972;BME280;23794;48.234;8.344;2023-06-24T08:20:34;95195.47;;;20.32;46.17
37972;BME280;23794;48.234;8.344;2023-06-24T08:23:01;95200.41;;;20.41;47.02
37972;BME280;23794;48.234;8.344;2023-06-24T08:25:28;95196.72;;;20.44;46.79
37972;BME280;23794;48.234;8.344;2023-06-24T08:27:54;95190.16;;;20.38;46.15
37972;BME280;23794;48.234;8.344;2023-06-24T08:30:21;95185.59;;;20.44;46.07
37972;BME280;23794;48.234;8.344;2023-06-24T08:32:48;95181.22;;;20.30;45.58
37972;BME280;23794;48.234;8.344;2023-06-24T08:35:14;95189.16;;;20.32;44.51
37972;BME280;23794;48.234;8.344;2023-06-24T08:37:41;95179.69;;;20.42;45.75
37972;BME280;23794;48.234;8.344;2023-06-24T08:40:08;95182.16;;;20.53;45.28
37972;BME280;23794;48.234;8.344;2023-06-24T08:42:35;95179.00;;;20.67;45.33
37972;BME280;23794;48.234;8.344;2023-06-24T08:45:02;95172.41;;;20.74;44.75
37972;BME280;23794;48.234;8.344;2023-06-24T08:47:28;95175.97;;;21.00;45.86
37972;BME280;23794;48.234;8.344;2023-06-24T08:50:03;95175.75;;;20.95;42.32
37972;BME280;23794;48.234;8.344;2023-06-24T08:52:33;95173.19;;;20.88;43.50
37972;BME280;23794;48.234;8.344;2023-06-24T08:55:01;95171.63;;;20.99;44.17
37972;BME280;23794;48.234;8.344;2023-06-24T08:57:28;95169.06;;;21.18;43.07
37972;BME280;23794;48.234;8.344;2023-06-24T08:59:54;95166.94;;;21.22;42.45
37972;BME280;23794;48.234;8.344;2023-06-24T09:02:21;95173.50;;;21.41;42.90
37972;BME280;23794;48.234;8.344;2023-06-24T09:04:51;95174.59;;;21.57;41.87
37972;BME280;23794;48.234;8.344;2023-06-24T09:07:28;95173.50;;;21.41;41.89
37972;BME280;23794;48.234;8.344;2023-06-24T09:09:55;95170.50;;;21.36;41.56
37972;BME280;23794;48.234;8.344;2023-06-24T09:12:24;95178.06;;;21.35;42.04
37972;BME280;23794;48.234;8.344;2023-06-24T09:14:51;95177.19;;;21.38;43.47
37972;BME280;23794;48.234;8.344;2023-06-24T09:17:18;95164.78;;;21.52;42.50
37972;BME280;23794;48.234;8.344;2023-06-24T09:19:50;95164.97;;;21.71;42.38
37972;BME280;23794;48.234;8.344;2023-06-24T09:22:17;95160.88;;;21.62;40.05
37972;BME280;23794;48.234;8.344;2023-06-24T09:24:46;95150.66;;;21.46;38.97
37972;BME280;23794;48.234;8.344;2023-06-24T09:27:14;95152.28;;;21.57;39.27
37972;BME280;23794;48.234;8.344;2023-06-24T09:29:42;95157.31;;;21.62;39.63
37972;BME280;23794;48.234;8.344;2023-06-24T09:32:10;95163.28;;;21.73;39.79
37972;BME280;23794;48.234;8.344;2023-06-24T09:34:37;95140.81;;;21.90;39.34
37972;BME280;23794;48.234;8.344;2023-06-24T09:37:03;95140.53;;;21.97;39.53
37972;BME280;23794;48.234;8.344;2023-06-24T09:39:36;95133.53;;;21.92;39.48
37972;BME280;23794;48.234;8.344;2023-06-24T09:42:04;95137.22;;;21.89;39.59
37972;BME280;23794;48.234;8.344;2023-06-24T09:44:31;95133.34;;;21.87;38.54
37972;BME280;23794;48.234;8.344;2023-06-24T09:46:58;95140.78;;;22.12;38.64
37972;BME280;23794;48.234;8.344;2023-06-24T09:49:25;95129.97;;;22.14;39.28
37972;BME280;23794;48.234;8.344;2023-06-24T09:51:57;95120.28;;;22.06;39.34
37972;BME280;23794;48.234;8.344;2023-06-24T09:54:26;95124.06;;;22.34;39.09
37972;BME280;23794;48.234;8.344;2023-06-24T09:57:02;95128.50;;;22.22;39.55
37972;BME280;23794;48.234;8.344;2023-06-24T09:59:30;95131.28;;;22.22;39.38
37972;BME280;23794;48.234;8.344;2023-06-24T10:01:57;95123.91;;;22.16;36.21
37972;BME280;23794;48.234;8.344;2023-06-24T10:04:27;95117.34;;;22.54;36.87
37972;BME280;23794;48.234;8.344;2023-06-24T10:06:54;95126.41;;;22.67;35.53
37972;BME280;23794;48.234;8.344;2023-06-24T10:09:21;95117.19;;;22.89;35.72
37972;BME280;23794;48.234;8.344;2023-06-24T10:11:48;95103.75;;;22.65;35.81
37972;BME280;23794;48.234;8.344;2023-06-24T10:14:15;95116.97;;;22.42;35.33
37972;BME280;23794;48.234;8.344;2023-06-24T10:16:42;95118.53;;;22.44;35.34
37972;BME280;23794;48.234;8.344;2023-06-24T10:19:09;95116.16;;;22.33;35.78
37972;BME280;23794;48.234;8.344;2023-06-24T10:21:53;95101.09;;;22.62;35.61
37972;BME280;23794;48.234;8.344;2023-06-24T10:24:36;95116.78;;;22.68;36.48
37972;BME280;23794;48.234;8.344;2023-06-24T10:27:06;95105.78;;;23.05;38.71
37972;BME280;23794;48.234;8.344;2023-06-24T10:29:39;95099.94;;;23.50;35.34
37972;BME280;23794;48.234;8.344;2023-06-24T10:32:07;95100.56;;;23.54;34.80
37972;BME280;23794;48.234;8.344;2023-06-24T10:39:54;95102.88;;;23.56;33.94
37972;BME280;23794;48.234;8.344;2023-06-24T10:42:41;95094.78;;;24.23;34.87
37972;BME280;23794;48.234;8.344;2023-06-24T10:47:36;95080.72;;;24.60;34.41
37972;BME280;23794;48.234;8.344;2023-06-24T10:50:03;95084.47;;;24.47;34.49
37972;BME280;23794;48.234;8.344;2023-06-24T10:52:30;95075.88;;;23.99;34.72
37972;BME280;23794;48.234;8.344;2023-06-24T10:54:58;95076.47;;;23.94;33.83
37972;BME280;23794;48.234;8.344;2023-06-24T10:57:26;95073.28;;;24.47;33.22
37972;BME280;23794;48.234;8.344;2023-06-24T10:59:56;95071.88;;;24.43;33.35
37972;BME280;23794;48.234;8.344;2023-06-24T11:02:24;95074.16;;;23.92;32.62
37972;BME280;23794;48.234;8.344;2023-06-24T11:04:54;95075.88;;;23.62;33.74
37972;BME280;23794;48.234;8.344;2023-06-24T11:07:23;95059.88;;;23.62;34.50
37972;BME280;23794;48.234;8.344;2023-06-24T11:09:55;95057.75;;;24.37;34.54
37972;BME280;23794;48.234;8.344;2023-06-24T11:12:26;95053.47;;;25.18;34.51
37972;BME280;23794;48.234;8.344;2023-06-24T11:15:07;95060.97;;;24.54;31.89
37972;BME280;23794;48.234;8.344;2023-06-24T11:17:35;95053.06;;;24.53;32.97
37972;BME280;23794;48.234;8.344;2023-06-24T11:20:15;95051.59;;;24.57;31.49
37972;BME280;23794;48.234;8.344;2023-06-24T11:22:43;95044.25;;;24.26;31.25
37972;BME280;23794;48.234;8.344;2023-06-24T11:25:20;95033.31;;;24.38;31.82
37972;BME280;23794;48.234;8.344;2023-06-24T11:27:50;95031.03;;;24.94;32.29
37972;BME280;23794;48.234;8.344;2023-06-24T11:30:19;95030.50;;;25.29;31.34
37972;BME280;23794;48.234;8.344;2023-06-24T11:32:46;95037.50;;;25.34;29.76
37972;BME280;23794;48.234;8.344;2023-06-24T11:35:14;95028.81;;;25.32;30.71
37972;BME280;23794;48.234;8.344;2023-06-24T11:37:46;95019.13;;;25.33;31.77
37972;BME280;23794;48.234;8.344;2023-06-24T11:40:16;95004.34;;;25.86;30.30
37972;BME280;23794;48.234;8.344;2023-06-24T11:42:43;95021.94;;;26.02;28.47
37972;BME280;23794;48.234;8.344;2023-06-24T11:45:13;95014.75;;;25.71;29.81
37972;BME280;23794;48.234;8.344;2023-06-24T11:47:42;95015.44;;;25.26;29.88
37972;BME280;23794;48.234;8.344;2023-06-24T11:50:09;95020.69;;;25.09;29.19
37972;BME280;23794;48.234;8.344;2023-06-24T11:52:47;95020.25;;;24.77;29.99
37972;BME280;23794;48.234;8.344;2023-06-24T11:55:23;95016.31;;;24.84;29.58
37972;BME280;23794;48.234;8.344;2023-06-24T11:58:01;95007.91;;;25.33;30.04
37972;BME280;23794;48.234;8.344;2023-06-24T12:00:30;95006.38;;;25.07;28.70
37972;BME280;23794;48.234;8.344;2023-06-24T12:02:59;95004.28;;;24.93;28.33
37972;BME280;23794;48.234;8.344;2023-06-24T12:05:30;95003.69;;;24.89;29.05
37972;BME280;23794;48.234;8.344;2023-06-24T12:07:59;94994.31;;;25.55;29.91
37972;BME280;23794;48.234;8.344;2023-06-24T12:10:27;94987.63;;;26.07;27.38
37972;BME280;23794;48.234;8.344;2023-06-24T12:12:59;94998.13;;;26.27;28.24
37972;BME280;23794;48.234;8.344;2023-06-24T12:15:26;94977.75;;;26.62;27.91
37972;BME280;23794;48.234;8.344;2023-06-24T12:17:54;94966.94;;;26.40;27.30
37972;BME280;23794;48.234;8.344;2023-06-24T12:20:21;94962.47;;;26.48;27.95
37972;BME280;23794;48.234;8.344;2023-06-24T12:22:48;94962.16;;;26.61;28.46
37972;BME280;23794;48.234;8.344;2023-06-24T12:25:16;94969.28;;;26.98;27.85
37972;BME280;23794;48.234;8.344;2023-06-24T12:27:43;94964.44;;;26.27;27.82
37972;BME280;23794;48.234;8.344;2023-06-24T12:30:11;94969.97;;;25.62;28.69
37972;BME280;23794;48.234;8.344;2023-06-24T12:32:38;94964.41;;;25.92;28.62
37972;BME280;23794;48.234;8.344;2023-06-24T12:35:05;94959.28;;;26.76;27.24
37972;BME280;23794;48.234;8.344;2023-06-24T12:37:34;94957.91;;;26.87;26.83
37972;BME280;23794;48.234;8.344;2023-06-24T12:40:05;94961.00;;;27.09;26.52
37972;BME280;23794;48.234;8.344;2023-06-24T12:42:32;94955.72;;;26.76;26.63
37972;BME280;23794;48.234;8.344;2023-06-24T12:44:59;94956.94;;;25.88;28.34
37972;BME280;23794;48.234;8.344;2023-06-24T12:47:26;94953.25;;;26.12;27.72
37972;BME280;23794;48.234;8.344;2023-06-24T12:49:52;94940.91;;;26.25;28.13
37972;BME280;23794;48.234;8.344;2023-06-24T12:52:19;94953.00;;;26.46;26.91
37972;BME280;23794;48.234;8.344;2023-06-24T12:54:46;94945.22;;;26.56;26.84
37972;BME280;23794;48.234;8.344;2023-06-24T12:57:14;94939.94;;;27.20;26.65
37972;BME280;23794;48.234;8.344;2023-06-24T12:59:41;94943.66;;;27.58;25.25
37972;BME280;23794;48.234;8.344;2023-06-24T13:02:08;94940.88;;;27.63;25.35
37972;BME280;23794;48.234;8.344;2023-06-24T13:04:34;94936.31;;;27.66;24.89
37972;BME280;23794;48.234;8.344;2023-06-24T13:07:01;94932.34;;;27.78;24.74
37972;BME280;23794;48.234;8.344;2023-06-24T13:09:28;94928.94;;;27.22;26.01
37972;BME280;23794;48.234;8.344;2023-06-24T13:11:55;94935.78;;;27.15;26.17
37972;BME280;23794;48.234;8.344;2023-06-24T13:14:21;94940.34;;;27.12;26.60
37972;BME280;23794;48.234;8.344;2023-06-24T13:16:48;94934.50;;;27.63;25.05
37972;BME280;23794;48.234;8.344;2023-06-24T13:19:15;94930.13;;;27.62;25.31
37972;BME280;23794;48.234;8.344;2023-06-24T13:21:42;94931.09;;;27.80;26.60